createdAt,value
2023-03-13T00:01:48.484Z,99684.72
2023-03-13T00:06:49.970Z,99669.50
2023-03-13T00:11:51.344Z,99662.56
2023-03-13T00:16:52.753Z,99659.53
2023-03-13T00:21:54.126Z,99648.16
2023-03-13T00:26:55.798Z,99639.00
2023-03-13T00:31:57.161Z,99620.25
2023-03-13T00:36:58.620Z,99617.94
2023-03-13T00:41:59.938Z,99599.88
2023-03-13T00:47:01.293Z,99595.59
2023-03-13T00:52:02.630Z,99580.88
2023-03-13T00:57:06.781Z,99574.91
2023-03-13T01:02:08.236Z,99566.06
2023-03-13T01:07:09.850Z,99559.81
2023-03-13T01:12:11.185Z,99553.50
2023-03-13T01:17:12.531Z,99532.69
2023-03-13T01:22:13.901Z,99527.84
2023-03-13T01:27:15.311Z,99517.16
2023-03-13T01:32:16.759Z,99498.69
2023-03-13T01:37:18.166Z,99492.84
2023-03-13T01:42:19.520Z,99490.38
2023-03-13T01:47:20.944Z,99472.75
2023-03-13T01:52:25.403Z,99475.47
2023-03-13T01:57:30.907Z,99478.84
2023-03-13T02:02:32.297Z,99444.19
2023-03-13T02:07:38.610Z,99443.25
2023-03-13T02:12:40.719Z,99426.41
2023-03-13T02:17:42.538Z,99420.78
2023-03-13T02:22:53.925Z,99412.41
2023-03-13T02:27:58.886Z,99413.09
2023-03-13T02:33:01.386Z,99401.09
2023-03-13T02:38:05.090Z,99392.69
2023-03-13T02:43:12.249Z,99376.03
2023-03-13T02:48:14.952Z,99359.53
2023-03-13T02:53:16.319Z,99359.66
2023-03-13T02:58:17.648Z,99338.16
2023-03-13T03:03:19.010Z,99340.25
2023-03-13T03:08:20.399Z,99345.66
2023-03-13T03:13:21.853Z,99356.00
2023-03-13T03:18:23.200Z,99349.59
2023-03-13T03:23:24.556Z,99348.09
2023-03-13T03:28:25.933Z,99329.56
2023-03-13T03:33:27.295Z,99320.50
2023-03-13T03:38:28.884Z,99307.31
2023-03-13T03:43:30.238Z,99301.22
2023-03-13T03:48:31.980Z,99302.03
2023-03-13T03:53:33.386Z,99306.25
2023-03-13T03:58:34.767Z,99293.28
2023-03-13T04:03:36.164Z,99279.19
2023-03-13T04:08:37.723Z,99302.50
2023-03-13T04:13:39.204Z,99286.00
2023-03-13T04:18:40.591Z,99256.50
2023-03-13T04:23:41.932Z,99249.94
2023-03-13T04:28:43.244Z,99278.44
2023-03-13T04:33:44.565Z,99258.91
2023-03-13T04:38:45.934Z,99260.44
2023-03-13T04:43:47.296Z,99255.16
2023-03-13T04:48:48.603Z,99234.53
2023-03-13T04:53:50.162Z,99218.88
2023-03-13T04:58:51.876Z,99209.66
2023-03-13T05:03:53.260Z,99160.06
2023-03-13T05:08:54.608Z,99152.84
2023-03-13T05:13:55.963Z,99179.69
2023-03-13T05:18:57.405Z,99176.31
2023-03-13T05:23:58.756Z,99182.78
2023-03-13T05:29:00.117Z,99169.03
2023-03-13T05:34:01.512Z,99170.75
2023-03-13T05:39:02.993Z,99156.06
2023-03-13T05:44:04.453Z,99154.31
2023-03-13T05:49:05.904Z,99149.59
2023-03-13T05:54:07.266Z,99135.97
2023-03-13T05:59:08.658Z,99161.97
2023-03-13T06:04:10.125Z,99140.16
2023-03-13T06:09:11.576Z,99130.75
2023-03-13T06:14:12.923Z,99163.00
2023-03-13T06:19:14.271Z,99156.06
2023-03-13T06:24:15.807Z,99135.88
2023-03-13T06:29:17.751Z,99131.91
2023-03-13T06:34:19.327Z,99129.63
2023-03-13T06:39:20.731Z,99145.88
2023-03-13T06:44:22.137Z,99154.13
2023-03-13T06:49:23.460Z,99157.09
2023-03-13T06:54:25.055Z,99166.34
2023-03-13T06:59:26.416Z,99192.13
2023-03-13T07:04:27.771Z,99182.38
2023-03-13T07:09:29.391Z,99174.59
2023-03-13T07:14:30.750Z,99191.13
2023-03-13T07:19:32.227Z,99227.47
2023-03-13T07:24:33.619Z,99212.63
2023-03-13T07:29:35.089Z,99214.81
2023-03-13T07:34:36.474Z,99221.06
2023-03-13T07:39:37.862Z,99238.84
2023-03-13T07:44:39.235Z,99219.88
2023-03-13T07:49:40.614Z,99230.81
2023-03-13T07:54:41.971Z,99232.88
2023-03-13T07:59:43.296Z,99245.78
2023-03-13T08:04:44.677Z,99264.56
2023-03-13T08:09:45.989Z,99270.56
2023-03-13T08:14:47.317Z,99264.03
2023-03-13T08:19:48.658Z,99253.31
2023-03-13T08:24:50.054Z,99244.53
2023-03-13T08:29:51.465Z,99254.31
2023-03-13T08:34:52.843Z,99240.56
2023-03-13T08:39:54.412Z,99227.88
2023-03-13T08:44:55.780Z,99214.38
2023-03-13T08:49:57.143Z,99212.63
2023-03-13T08:54:58.503Z,99212.44
2023-03-13T09:00:02.672Z,99212.31
2023-03-13T09:05:04.198Z,99207.69
2023-03-13T09:10:05.834Z,99204.91
2023-03-13T09:15:07.586Z,99182.75
2023-03-13T09:20:09.323Z,99184.72
2023-03-13T09:25:10.937Z,99175.81
2023-03-13T09:30:12.360Z,99173.16
2023-03-13T09:35:13.736Z,99184.09
2023-03-13T09:40:17.126Z,99166.53
2023-03-13T09:45:32.404Z,99164.56
2023-03-13T09:50:35.284Z,99170.97
2023-03-13T09:55:38.178Z,99152.94
2023-03-13T10:00:40.403Z,99166.19
2023-03-13T10:05:49.556Z,99163.19
2023-03-13T10:10:57.472Z,99150.31
2023-03-13T10:16:04.523Z,99149.97
2023-03-13T10:21:19.829Z,99147.84
2023-03-13T10:26:24.623Z,99142.19
2023-03-13T10:31:25.949Z,99121.75
2023-03-13T10:36:39.370Z,99118.56
2023-03-13T10:41:40.720Z,99103.81
2023-03-13T10:46:44.545Z,99111.34
2023-03-13T10:51:48.787Z,99109.94
2023-03-13T10:56:51.043Z,99117.72
2023-03-13T11:01:53.293Z,99107.28
2023-03-13T11:06:58.749Z,99103.53
2023-03-13T11:12:20.073Z,99093.06
2023-03-13T11:17:27.175Z,99080.66
2023-03-13T11:22:48.927Z,99078.22
2023-03-13T11:27:53.014Z,99062.41
2023-03-13T11:33:20.624Z,99044.25
2023-03-13T11:38:32.198Z,99034.94
2023-03-13T11:43:42.020Z,99028.41
2023-03-13T11:49:02.435Z,99015.09
2023-03-13T11:54:22.691Z,99017.66
2023-03-13T11:59:46.359Z,99008.91
2023-03-13T12:04:53.062Z,99005.94
2023-03-13T12:09:58.694Z,98990.84
2023-03-13T12:15:06.018Z,98983.47
2023-03-13T12:20:19.669Z,98966.19
2023-03-13T12:25:24.037Z,98953.16
2023-03-13T12:30:54.971Z,98934.16
2023-03-13T12:36:05.724Z,98914.56
2023-03-13T12:41:17.885Z,98916.16
2023-03-13T12:46:19.358Z,98918.16
2023-03-13T12:51:47.127Z,98911.72
2023-03-13T12:57:03.793Z,98908.38
2023-03-13T13:02:14.839Z,98874.88
2023-03-13T13:07:19.417Z,98859.41
2023-03-13T13:12:22.290Z,98832.28
2023-03-13T13:17:30.280Z,98800.41
2023-03-13T13:22:34.742Z,98784.97
2023-03-13T13:27:36.161Z,98765.34
2023-03-13T13:32:39.347Z,98754.72
2023-03-13T13:37:40.801Z,98750.75
2023-03-13T13:42:54.212Z,98746.09
2023-03-13T13:48:33.940Z,98743.66
2023-03-13T13:53:51.770Z,98727.44
2023-03-13T13:58:57.224Z,98745.41
2023-03-13T14:04:11.471Z,98763.25
2023-03-13T14:09:31.539Z,98732.78
2023-03-13T14:14:32.925Z,98728.09
2023-03-13T14:19:38.786Z,98699.88
2023-03-13T14:24:40.387Z,98664.19
2023-03-13T14:29:41.805Z,98648.41
2023-03-13T14:34:43.226Z,98637.03
2023-03-13T14:39:45.503Z,98622.72
2023-03-13T14:44:47.637Z,98619.50
2023-03-13T14:49:55.343Z,98636.06
2023-03-13T14:55:06.058Z,98656.50
2023-03-13T15:00:26.494Z,98621.81
2023-03-13T15:05:32.270Z,98622.72
2023-03-13T15:10:35.315Z,98618.97
2023-03-13T15:15:36.731Z,98618.84
2023-03-13T15:20:38.075Z,98613.50
2023-03-13T15:25:39.496Z,98610.91
2023-03-13T15:30:40.989Z,98603.75
2023-03-13T15:35:43.513Z,98601.25
2023-03-13T15:40:45.414Z,98576.00
2023-03-13T15:45:47.431Z,98554.84
2023-03-13T15:50:53.257Z,98536.47
2023-03-13T15:55:55.477Z,98494.44
2023-03-13T16:00:57.577Z,98505.50
2023-03-13T16:05:58.966Z,98508.44
2023-03-13T16:11:00.314Z,98489.59
2023-03-13T16:16:01.665Z,98494.72
2023-03-13T16:21:03.097Z,98498.69
2023-03-13T16:26:05.729Z,98483.59
2023-03-13T16:31:08.971Z,98488.84
2023-03-13T16:36:14.369Z,98477.25
2023-03-13T16:41:25.532Z,98487.88
2023-03-13T16:46:32.933Z,98495.81
2023-03-13T16:51:34.336Z,98483.81
2023-03-13T16:56:37.129Z,98473.09
2023-03-13T17:01:38.521Z,98466.28
2023-03-13T17:06:41.280Z,98477.47
2023-03-13T17:11:43.630Z,98479.09
2023-03-13T17:16:45.727Z,98489.81
2023-03-13T17:21:47.123Z,98500.28
2023-03-13T17:26:48.521Z,98497.56
2023-03-13T17:31:50.076Z,98506.91
2023-03-13T17:36:51.419Z,98502.50
2023-03-13T17:41:52.857Z,98486.75
2023-03-13T17:46:54.323Z,98463.63
2023-03-13T17:51:55.763Z,98461.53
2023-03-13T17:56:57.159Z,98456.69
2023-03-13T18:01:58.605Z,98438.78
2023-03-13T18:07:00.560Z,98455.22
2023-03-13T18:12:01.932Z,98471.47
2023-03-13T18:17:03.323Z,98495.41
2023-03-13T18:22:06.479Z,98526.13
2023-03-13T18:27:11.889Z,98499.59
2023-03-13T18:32:14.118Z,98464.84
2023-03-13T18:37:21.596Z,98464.97
2023-03-13T18:42:22.981Z,98442.00
2023-03-13T18:47:24.595Z,98463.53
2023-03-13T18:52:25.960Z,98475.72
2023-03-13T18:57:27.337Z,98380.06
2023-03-13T19:02:28.740Z,98387.00
2023-03-13T19:07:30.228Z,98411.75
2023-03-13T19:12:31.660Z,98388.38
2023-03-13T19:17:33.151Z,98369.59
2023-03-13T19:22:34.551Z,98326.72
2023-03-13T19:27:35.924Z,98327.53
2023-03-13T19:32:37.284Z,98346.91
2023-03-13T19:37:41.656Z,98354.13
2023-03-13T19:42:42.988Z,98302.28
2023-03-13T19:47:44.705Z,98350.25
2023-03-13T19:52:46.185Z,98345.16
2023-03-13T19:57:47.729Z,98319.50
2023-03-13T20:02:49.455Z,98344.13
2023-03-13T20:07:50.849Z,98334.78
2023-03-13T20:12:52.333Z,98325.50
2023-03-13T20:17:53.748Z,98343.97
2023-03-13T20:22:55.088Z,98353.00
2023-03-13T20:27:56.488Z,98375.22
2023-03-13T20:32:59.970Z,98375.00
2023-03-13T20:38:01.527Z,98363.00
2023-03-13T20:43:03.318Z,98349.25
2023-03-13T20:48:04.792Z,98345.22
2023-03-13T20:53:06.277Z,98312.81
2023-03-13T20:58:07.661Z,98301.13
2023-03-13T21:03:09.054Z,98299.78
2023-03-13T21:08:10.802Z,98290.91
2023-03-13T21:13:12.337Z,98298.66
2023-03-13T21:18:13.758Z,98326.63
2023-03-13T21:23:15.173Z,98353.03
2023-03-13T21:28:16.504Z,98363.31
2023-03-13T21:33:17.922Z,98362.75
2023-03-13T21:38:19.397Z,98371.16
2023-03-13T21:43:23.760Z,98374.19
2023-03-13T21:48:25.327Z,98376.44
2023-03-13T21:53:26.682Z,98408.84
2023-03-13T21:58:28.073Z,98402.38
2023-03-13T22:03:29.578Z,98391.66
2023-03-13T22:08:30.923Z,98389.94
2023-03-13T22:13:32.321Z,98395.66
2023-03-13T22:18:33.686Z,98390.09
2023-03-13T22:23:35.182Z,98402.59
2023-03-13T22:28:36.650Z,98397.38
2023-03-13T22:33:38.024Z,98411.97
2023-03-13T22:38:39.462Z,98401.22
2023-03-13T22:43:40.832Z,98375.97
2023-03-13T22:48:42.201Z,98370.38
2023-03-13T22:53:43.711Z,98351.63
2023-03-13T22:58:45.278Z,98326.56
2023-03-13T23:03:46.616Z,98351.75
2023-03-13T23:08:47.969Z,98350.13
2023-03-13T23:13:49.471Z,98357.88
2023-03-13T23:18:51.013Z,98348.09
2023-03-13T23:23:53.618Z,98345.63
2023-03-13T23:28:54.959Z,98362.69
2023-03-13T23:33:56.313Z,98357.84
2023-03-13T23:38:57.667Z,98378.53
2023-03-13T23:43:58.970Z,98385.34
2023-03-13T23:49:00.366Z,98388.16
2023-03-13T23:54:01.712Z,98419.50
2023-03-13T23:59:03.062Z,98412.22
